Aqualoyalty — A8ZC6 — position and weather

sailwx.info

Track history (hours):
 
Tides and Currents Weather Stations Pressure Air Temp Water Temp Dewpoint Dewpoint Depression Visibility Wind Speed Wind Dir Waves Ship Positions

Aqualoyalty

Last reported at 2018-Jun-25 08:22 UTC. Time now 2018-Jun-25 11:35 UTC.
Position N 27°38' W 115°56'.

Length 249 m; draft 10.9 m.

Type: Tanker. MMSI: 636015177.

Date/timePositionNaut miles runAvg speedWind from/ knotsBaromVisibWave heightAir tempDewpointWater temp
2018-Jun-25 08:22N 27°38' W 115°56'7613.0
2018-Jun-25 02:30N 26°36' W 115°05'  
2018-Jun-16 19:08N 09°11' W 079°53'211.7
2018-Jun-16 19:00N 09°12' W 079°54'2 3.6
2018-Jun-16 18:22N 09°14' W 079°56'0 0.1
2018-Jun-16 17:50N 09°14' W 079°56'0 0.0
2018-Jun-16 17:29N 09°14' W 079°56'0 0.0
2018-Jun-16 16:56N 09°14' W 079°56'0 0.1
2018-Jun-16 16:26N 09°14' W 079°56'0 0.1
2018-Jun-16 15:56N 09°13' W 079°56'0 0.0
2018-Jun-16 15:26N 09°13' W 079°56'0 0.0
2018-Jun-16 14:56N 09°13' W 079°56'0 0.0
2018-Jun-16 14:29N 09°13' W 079°56'0 0.1
2018-Jun-16 13:59N 09°14' W 079°56'0 0.1
2018-Jun-16 13:26N 09°14' W 079°56'0 0.1
2018-Jun-16 12:56N 09°14' W 079°56'0 0.1
2018-Jun-16 12:26N 09°14' W 079°56'0 0.1
2018-Jun-16 11:59N 09°14' W 079°56'0 0.1
2018-Jun-16 11:29N 09°14' W 079°56'0 0.1
2018-Jun-16 10:59N 09°14' W 079°56'0 0.0
2018-Jun-16 10:29N 09°14' W 079°56'0 0.0
2018-Jun-16 09:59N 09°14' W 079°56'0 0.1
2018-Jun-16 09:26N 09°14' W 079°56'0 0.1
2018-Jun-16 08:59N 09°14' W 079°56'0 0.1
2018-Jun-16 08:29N 09°14' W 079°56'0 0.0
2018-Jun-16 07:59N 09°14' W 079°56'0 0.1
2018-Jun-16 07:29N 09°14' W 079°56'0 0.1
2018-Jun-16 06:59N 09°14' W 079°56'0 0.0
2018-Jun-16 06:29N 09°14' W 079°56'2 1.4
2018-Jun-16 05:05N 09°15' W 079°55'1 2.0
2018-Jun-16 04:46N 09°16' W 079°55'0 0.6
2018-Jun-16 04:30N 09°16' W 079°55'0 0.2
2018-Jun-16 04:00N 09°16' W 079°55'0 0.3
2018-Jun-16 03:30N 09°16' W 079°55'0 0.5
2018-Jun-16 03:00N 09°17' W 079°55'0 0.3
2018-Jun-16 02:30N 09°17' W 079°55'1 1.1
2018-Jun-16 02:00N 09°17' W 079°55'1 2.1
2018-Jun-16 01:30N 09°18' W 079°55'2 3.6
2018-Jun-16 01:00N 09°20' W 079°55'1 1.5
2018-Jun-16 00:30N 09°21' W 079°55'1 2.7
2018-Jun-16 00:00N 09°22' W 079°55'3 5.9
2018-Jun-15 23:30N 09°25' W 079°55'4 8.6
2018-Jun-15 23:00N 09°29' W 079°54'2 2.8
2018-Jun-15 22:15N 09°31' W 079°54'1 1.2
2018-Jun-15 21:40N 09°31' W 079°54'1 5.7
2018-Jun-15 21:30N 09°30' W 079°54'1 1.1
2018-Jun-15 21:00N 09°29' W 079°54'0 0.3
2018-Jun-15 20:28N 09°29' W 079°54'0 0.3
2018-Jun-15 20:00N 09°30' W 079°54'0 0.3
2018-Jun-15 19:29N 09°30' W 079°54'3 6.0
2018-Jun-15 18:58N 09°33' W 079°52'  
Track history (hours):
 
Tides and Currents Weather Stations Pressure Air Temp Water Temp Dewpoint Dewpoint Depression Visibility Wind Speed Wind Dir Waves Ship Positions

Aqualoyalty

Last reported at 2018-Jun-25 08:22 UTC. Time now 2018-Jun-25 11:35 UTC.
Position N 27°38' W 115°56'.

Length 249 m; draft 10.9 m.

Type: Tanker. MMSI: 636015177.

Date/timePositionNaut miles runAvg speedWind from/ knotsBaromVisibWave heightAir tempDewpointWater temp
2018-Jun-25 08:22N 27°38' W 115°56'7613.0
2018-Jun-25 02:30N 26°36' W 115°05'  
2018-Jun-16 19:08N 09°11' W 079°53'211.7
2018-Jun-16 19:00N 09°12' W 079°54'2 3.6
2018-Jun-16 18:22N 09°14' W 079°56'0 0.1
2018-Jun-16 17:50N 09°14' W 079°56'0 0.0
2018-Jun-16 17:29N 09°14' W 079°56'0 0.0
2018-Jun-16 16:56N 09°14' W 079°56'0 0.1
2018-Jun-16 16:26N 09°14' W 079°56'0 0.1
2018-Jun-16 15:56N 09°13' W 079°56'0 0.0
2018-Jun-16 15:26N 09°13' W 079°56'0 0.0
2018-Jun-16 14:56N 09°13' W 079°56'0 0.0
2018-Jun-16 14:29N 09°13' W 079°56'0 0.1
2018-Jun-16 13:59N 09°14' W 079°56'0 0.1
2018-Jun-16 13:26N 09°14' W 079°56'0 0.1
2018-Jun-16 12:56N 09°14' W 079°56'0 0.1
2018-Jun-16 12:26N 09°14' W 079°56'0 0.1
2018-Jun-16 11:59N 09°14' W 079°56'0 0.1
2018-Jun-16 11:29N 09°14' W 079°56'0 0.1
2018-Jun-16 10:59N 09°14' W 079°56'0 0.0
2018-Jun-16 10:29N 09°14' W 079°56'0 0.0
2018-Jun-16 09:59N 09°14' W 079°56'0 0.1
2018-Jun-16 09:26N 09°14' W 079°56'0 0.1
2018-Jun-16 08:59N 09°14' W 079°56'0 0.1
2018-Jun-16 08:29N 09°14' W 079°56'0 0.0
2018-Jun-16 07:59N 09°14' W 079°56'0 0.1
2018-Jun-16 07:29N 09°14' W 079°56'0 0.1
2018-Jun-16 06:59N 09°14' W 079°56'0 0.0
2018-Jun-16 06:29N 09°14' W 079°56'2 1.4
2018-Jun-16 05:05N 09°15' W 079°55'1 2.0
2018-Jun-16 04:46N 09°16' W 079°55'0 0.6
2018-Jun-16 04:30N 09°16' W 079°55'0 0.2
2018-Jun-16 04:00N 09°16' W 079°55'0 0.3
2018-Jun-16 03:30N 09°16' W 079°55'0 0.5
2018-Jun-16 03:00N 09°17' W 079°55'0 0.3
2018-Jun-16 02:30N 09°17' W 079°55'1 1.1
2018-Jun-16 02:00N 09°17' W 079°55'1 2.1
2018-Jun-16 01:30N 09°18' W 079°55'2 3.6
2018-Jun-16 01:00N 09°20' W 079°55'1 1.5
2018-Jun-16 00:30N 09°21' W 079°55'1 2.7
2018-Jun-16 00:00N 09°22' W 079°55'3 5.9
2018-Jun-15 23:30N 09°25' W 079°55'4 8.6
2018-Jun-15 23:00N 09°29' W 079°54'2 2.8
2018-Jun-15 22:15N 09°31' W 079°54'1 1.2
2018-Jun-15 21:40N 09°31' W 079°54'1 5.7
2018-Jun-15 21:30N 09°30' W 079°54'1 1.1
2018-Jun-15 21:00N 09°29' W 079°54'0 0.3
2018-Jun-15 20:28N 09°29' W 079°54'0 0.3
2018-Jun-15 20:00N 09°30' W 079°54'0 0.3
2018-Jun-15 19:29N 09°30' W 079°54'3 6.0
2018-Jun-15 18:58N 09°33' W 079°52'  

Dump ship's entire track history